sensor_id;sensor_type;location;lat;lon;timestamp;temperature;humidity
66708;DHT22;53622;0.000;0.000;2023-09-19T00:00:58;24.70;69.20
66708;DHT22;53622;0.000;0.000;2023-09-19T00:03:30;24.70;69.30
66708;DHT22;53622;0.000;0.000;2023-09-19T00:05:59;24.70;69.30
66708;DHT22;53622;0.000;0.000;2023-09-19T00:08:27;24.70;69.30
66708;DHT22;53622;0.000;0.000;2023-09-19T00:10:56;24.70;69.30
66708;DHT22;53622;0.000;0.000;2023-09-19T00:13:32;24.70;69.30
66708;DHT22;53622;0.000;0.000;2023-09-19T00:16:10;24.70;69.40
66708;DHT22;53622;0.000;0.000;2023-09-19T00:18:40;24.70;69.30
66708;DHT22;53622;0.000;0.000;2023-09-19T00:21:10;24.70;69.30
66708;DHT22;53622;0.000;0.000;2023-09-19T00:23:39;24.70;69.30
66708;DHT22;53622;0.000;0.000;2023-09-19T00:26:09;24.70;69.20
66708;DHT22;53622;0.000;0.000;2023-09-19T00:28:39;24.70;69.30
66708;DHT22;53622;0.000;0.000;2023-09-19T00:31:11;24.70;69.30
66708;DHT22;53622;0.000;0.000;2023-09-19T00:33:40;24.70;69.30
66708;DHT22;53622;0.000;0.000;2023-09-19T00:36:10;24.70;69.20
66708;DHT22;53622;0.000;0.000;2023-09-19T00:38:39;24.60;69.20
66708;DHT22;53622;0.000;0.000;2023-09-19T00:41:08;24.60;69.30
66708;DHT22;53622;0.000;0.000;2023-09-19T00:43:37;24.60;69.20
66708;DHT22;53622;0.000;0.000;2023-09-19T00:46:08;24.60;69.20
66708;DHT22;53622;0.000;0.000;2023-09-19T00:48:41;24.60;69.30
66708;DHT22;53622;0.000;0.000;2023-09-19T00:51:12;24.60;69.20
66708;DHT22;53622;0.000;0.000;2023-09-19T00:53:44;24.60;69.10
66708;DHT22;53622;0.000;0.000;2023-09-19T00:56:14;24.60;69.20
66708;DHT22;53622;0.000;0.000;2023-09-19T00:58:47;24.60;69.20
66708;DHT22;53622;0.000;0.000;2023-09-19T01:01:16;24.60;69.10
66708;DHT22;53622;0.000;0.000;2023-09-19T01:03:47;24.60;69.10
66708;DHT22;53622;0.000;0.000;2023-09-19T01:06:18;24.60;69.10
66708;DHT22;53622;0.000;0.000;2023-09-19T01:08:47;24.60;69.10
66708;DHT22;53622;0.000;0.000;2023-09-19T01:11:21;24.60;69.10
66708;DHT22;53622;0.000;0.000;2023-09-19T01:13:58;24.60;69.10
66708;DHT22;53622;0.000;0.000;2023-09-19T01:16:35;24.60;69.10
66708;DHT22;53622;0.000;0.000;2023-09-19T01:19:47;24.60;69.00
66708;DHT22;53622;0.000;0.000;2023-09-19T01:22:31;24.60;69.10
66708;DHT22;53622;0.000;0.000;2023-09-19T01:25:20;24.60;69.20
66708;DHT22;53622;0.000;0.000;2023-09-19T01:28:12;24.60;69.20
66708;DHT22;53622;0.000;0.000;2023-09-19T01:30:46;24.60;69.10
66708;DHT22;53622;0.000;0.000;2023-09-19T01:33:17;24.60;69.20
66708;DHT22;53622;0.000;0.000;2023-09-19T01:35:46;24.60;69.10
66708;DHT22;53622;0.000;0.000;2023-09-19T01:38:17;24.60;69.10
66708;DHT22;53622;0.000;0.000;2023-09-19T01:40:52;24.60;69.10
66708;DHT22;53622;0.000;0.000;2023-09-19T01:43:29;24.60;69.10
66708;DHT22;53622;0.000;0.000;2023-09-19T01:46:07;24.60;69.10
66708;DHT22;53622;0.000;0.000;2023-09-19T01:48:41;24.50;69.10
66708;DHT22;53622;0.000;0.000;2023-09-19T01:51:18;24.50;69.10
66708;DHT22;53622;0.000;0.000;2023-09-19T01:53:53;24.50;69.20
66708;DHT22;53622;0.000;0.000;2023-09-19T01:56:29;24.50;69.20
66708;DHT22;53622;0.000;0.000;2023-09-19T01:59:05;24.50;69.10
66708;DHT22;53622;0.000;0.000;2023-09-19T02:01:38;24.50;69.10
66708;DHT22;53622;0.000;0.000;2023-09-19T02:04:08;24.50;69.10
66708;DHT22;53622;0.000;0.000;2023-09-19T02:06:39;24.50;69.10
66708;DHT22;53622;0.000;0.000;2023-09-19T02:09:08;24.50;69.10
66708;DHT22;53622;0.000;0.000;2023-09-19T02:11:37;24.50;69.20
66708;DHT22;53622;0.000;0.000;2023-09-19T02:14:06;24.50;69.10
66708;DHT22;53622;0.000;0.000;2023-09-19T02:16:37;24.50;69.10
66708;DHT22;53622;0.000;0.000;2023-09-19T02:19:07;24.50;69.10
66708;DHT22;53622;0.000;0.000;2023-09-19T02:21:36;24.50;69.00
66708;DHT22;53622;0.000;0.000;2023-09-19T02:24:08;24.50;69.10
66708;DHT22;53622;0.000;0.000;2023-09-19T02:26:38;24.50;69.10
66708;DHT22;53622;0.000;0.000;2023-09-19T02:29:06;24.50;69.10
66708;DHT22;53622;0.000;0.000;2023-09-19T02:31:36;24.50;69.10
66708;DHT22;53622;0.000;0.000;2023-09-19T02:34:09;24.50;69.80
66708;DHT22;53622;0.000;0.000;2023-09-19T02:36:38;24.50;69.00
66708;DHT22;53622;0.000;0.000;2023-09-19T02:39:07;24.50;69.00
66708;DHT22;53622;0.000;0.000;2023-09-19T02:41:37;24.50;69.00
66708;DHT22;53622;0.000;0.000;2023-09-19T02:44:06;24.50;68.90
66708;DHT22;53622;0.000;0.000;2023-09-19T02:46:35;24.50;69.70
66708;DHT22;53622;0.000;0.000;2023-09-19T02:49:06;24.50;69.00
66708;DHT22;53622;0.000;0.000;2023-09-19T02:51:35;24.50;69.00
66708;DHT22;53622;0.000;0.000;2023-09-19T02:54:05;24.50;69.10
66708;DHT22;53622;0.000;0.000;2023-09-19T02:56:35;24.50;69.10
66708;DHT22;53622;0.000;0.000;2023-09-19T02:59:04;24.50;69.10
66708;DHT22;53622;0.000;0.000;2023-09-19T03:01:35;24.50;69.90
66708;DHT22;53622;0.000;0.000;2023-09-19T03:04:06;24.50;69.00
66708;DHT22;53622;0.000;0.000;2023-09-19T03:06:36;24.50;69.00
66708;DHT22;53622;0.000;0.000;2023-09-19T03:09:06;24.50;69.00
66708;DHT22;53622;0.000;0.000;2023-09-19T03:11:41;24.50;68.90
66708;DHT22;53622;0.000;0.000;2023-09-19T03:14:10;24.50;69.00
66708;DHT22;53622;0.000;0.000;2023-09-19T03:16:40;24.50;69.10
66708;DHT22;53622;0.000;0.000;2023-09-19T03:19:12;24.50;69.00
66708;DHT22;53622;0.000;0.000;2023-09-19T03:21:43;24.50;68.90
66708;DHT22;53622;0.000;0.000;2023-09-19T03:24:13;24.40;68.90
66708;DHT22;53622;0.000;0.000;2023-09-19T03:26:42;24.40;69.60
66708;DHT22;53622;0.000;0.000;2023-09-19T03:29:13;24.50;68.80
66708;DHT22;53622;0.000;0.000;2023-09-19T03:31:42;24.50;68.90
66708;DHT22;53622;0.000;0.000;2023-09-19T03:34:14;24.50;68.90
66708;DHT22;53622;0.000;0.000;2023-09-19T03:36:44;24.50;68.80
66708;DHT22;53622;0.000;0.000;2023-09-19T03:39:13;24.50;68.80
66708;DHT22;53622;0.000;0.000;2023-09-19T03:41:43;24.50;68.80
66708;DHT22;53622;0.000;0.000;2023-09-19T03:44:12;24.50;68.80
66708;DHT22;53622;0.000;0.000;2023-09-19T03:46:42;24.40;68.70
66708;DHT22;53622;0.000;0.000;2023-09-19T03:49:13;24.40;68.70
66708;DHT22;53622;0.000;0.000;2023-09-19T03:51:42;24.50;68.70
66708;DHT22;53622;0.000;0.000;2023-09-19T03:54:11;24.40;68.70
66708;DHT22;53622;0.000;0.000;2023-09-19T03:56:40;24.40;68.70
66708;DHT22;53622;0.000;0.000;2023-09-19T03:59:10;24.40;68.80
66708;DHT22;53622;0.000;0.000;2023-09-19T04:01:40;24.40;68.70
66708;DHT22;53622;0.000;0.000;2023-09-19T04:04:09;24.40;68.70
66708;DHT22;53622;0.000;0.000;2023-09-19T04:06:41;24.40;68.70
66708;DHT22;53622;0.000;0.000;2023-09-19T04:09:10;24.40;68.80
66708;DHT22;53622;0.000;0.000;2023-09-19T04:11:40;24.40;68.70
66708;DHT22;53622;0.000;0.000;2023-09-19T04:14:09;24.40;68.60
66708;DHT22;53622;0.000;0.000;2023-09-19T04:16:39;24.40;68.60
66708;DHT22;53622;0.000;0.000;2023-09-19T04:19:11;24.40;68.60
66708;DHT22;53622;0.000;0.000;2023-09-19T04:21:44;24.50;68.60
66708;DHT22;53622;0.000;0.000;2023-09-19T04:24:13;24.50;68.40
66708;DHT22;53622;0.000;0.000;2023-09-19T04:26:41;24.50;68.40
66708;DHT22;53622;0.000;0.000;2023-09-19T04:29:11;24.50;68.40
66708;DHT22;53622;0.000;0.000;2023-09-19T04:31:41;24.50;68.60
66708;DHT22;53622;0.000;0.000;2023-09-19T04:34:13;24.50;68.70
66708;DHT22;53622;0.000;0.000;2023-09-19T04:36:46;24.50;68.60
66708;DHT22;53622;0.000;0.000;2023-09-19T04:39:15;24.50;68.60
66708;DHT22;53622;0.000;0.000;2023-09-19T04:41:45;24.50;68.70
66708;DHT22;53622;0.000;0.000;2023-09-19T04:44:15;24.50;68.80
66708;DHT22;53622;0.000;0.000;2023-09-19T04:46:46;24.50;68.50
66708;DHT22;53622;0.000;0.000;2023-09-19T04:49:15;24.50;68.40
66708;DHT22;53622;0.000;0.000;2023-09-19T04:51:46;24.50;68.60
66708;DHT22;53622;0.000;0.000;2023-09-19T04:54:15;24.50;68.90
66708;DHT22;53622;0.000;0.000;2023-09-19T04:56:45;24.50;69.30
66708;DHT22;53622;0.000;0.000;2023-09-19T04:59:14;24.50;69.20
66708;DHT22;53622;0.000;0.000;2023-09-19T05:01:43;24.50;69.20
66708;DHT22;53622;0.000;0.000;2023-09-19T05:04:12;24.50;69.30
66708;DHT22;53622;0.000;0.000;2023-09-19T05:06:41;24.50;69.30
66708;DHT22;53622;0.000;0.000;2023-09-19T05:09:15;24.50;69.40
66708;DHT22;53622;0.000;0.000;2023-09-19T05:11:47;24.50;69.40
66708;DHT22;53622;0.000;0.000;2023-09-19T05:14:16;24.50;69.30
66708;DHT22;53622;0.000;0.000;2023-09-19T05:16:45;24.50;69.30
66708;DHT22;53622;0.000;0.000;2023-09-19T05:19:14;24.50;69.10
66708;DHT22;53622;0.000;0.000;2023-09-19T05:21:44;24.50;68.90
66708;DHT22;53622;0.000;0.000;2023-09-19T05:24:16;24.50;68.80
66708;DHT22;53622;0.000;0.000;2023-09-19T05:26:45;24.50;68.90
66708;DHT22;53622;0.000;0.000;2023-09-19T05:29:14;24.50;68.80
66708;DHT22;53622;0.000;0.000;2023-09-19T05:31:43;24.50;68.90
66708;DHT22;53622;0.000;0.000;2023-09-19T05:34:12;24.50;69.00
66708;DHT22;53622;0.000;0.000;2023-09-19T05:36:41;24.50;68.80
66708;DHT22;53622;0.000;0.000;2023-09-19T05:39:10;24.50;68.70
66708;DHT22;53622;0.000;0.000;2023-09-19T05:41:41;24.50;68.70
66708;DHT22;53622;0.000;0.000;2023-09-19T05:44:10;24.50;68.90
66708;DHT22;53622;0.000;0.000;2023-09-19T05:46:39;24.50;68.80
66708;DHT22;53622;0.000;0.000;2023-09-19T05:49:08;24.50;68.90
66708;DHT22;53622;0.000;0.000;2023-09-19T05:51:37;24.50;68.90
66708;DHT22;53622;0.000;0.000;2023-09-19T05:54:06;24.50;68.80
66708;DHT22;53622;0.000;0.000;2023-09-19T05:56:35;24.50;68.70
66708;DHT22;53622;0.000;0.000;2023-09-19T05:59:05;24.50;68.70
66708;DHT22;53622;0.000;0.000;2023-09-19T06:01:34;24.50;68.50
66708;DHT22;53622;0.000;0.000;2023-09-19T06:04:04;24.50;68.50
66708;DHT22;53622;0.000;0.000;2023-09-19T06:06:33;24.50;68.60
66708;DHT22;53622;0.000;0.000;2023-09-19T06:09:06;24.50;68.50
66708;DHT22;53622;0.000;0.000;2023-09-19T06:11:36;24.50;68.60
66708;DHT22;53622;0.000;0.000;2023-09-19T06:14:06;24.50;68.60
66708;DHT22;53622;0.000;0.000;2023-09-19T06:16:35;24.50;68.60
66708;DHT22;53622;0.000;0.000;2023-09-19T06:19:05;24.50;68.60
66708;DHT22;53622;0.000;0.000;2023-09-19T06:21:36;24.50;68.50
66708;DHT22;53622;0.000;0.000;2023-09-19T06:24:06;24.50;68.50
66708;DHT22;53622;0.000;0.000;2023-09-19T06:26:35;24.50;68.50
66708;DHT22;53622;0.000;0.000;2023-09-19T06:29:06;24.50;68.50
66708;DHT22;53622;0.000;0.000;2023-09-19T06:31:35;24.50;68.50
66708;DHT22;53622;0.000;0.000;2023-09-19T06:34:04;24.40;68.40
66708;DHT22;53622;0.000;0.000;2023-09-19T06:36:34;24.40;68.50
66708;DHT22;53622;0.000;0.000;2023-09-19T06:39:03;24.40;68.50
66708;DHT22;53622;0.000;0.000;2023-09-19T06:41:33;24.40;68.50
66708;DHT22;53622;0.000;0.000;2023-09-19T06:44:09;24.40;68.50
66708;DHT22;53622;0.000;0.000;2023-09-19T06:46:38;24.40;68.50
66708;DHT22;53622;0.000;0.000;2023-09-19T06:49:07;24.40;68.60
66708;DHT22;53622;0.000;0.000;2023-09-19T06:51:38;24.40;68.60
66708;DHT22;53622;0.000;0.000;2023-09-19T06:54:07;24.40;68.70
66708;DHT22;53622;0.000;0.000;2023-09-19T06:56:36;24.40;68.60
66708;DHT22;53622;0.000;0.000;2023-09-19T06:59:05;24.40;68.50
66708;DHT22;53622;0.000;0.000;2023-09-19T07:01:36;24.40;68.50
66708;DHT22;53622;0.000;0.000;2023-09-19T07:04:05;24.40;68.50
66708;DHT22;53622;0.000;0.000;2023-09-19T07:06:34;24.40;68.50
66708;DHT22;53622;0.000;0.000;2023-09-19T07:09:04;24.40;68.60
66708;DHT22;53622;0.000;0.000;2023-09-19T07:11:34;24.40;68.50
66708;DHT22;53622;0.000;0.000;2023-09-19T07:14:03;24.40;68.60
66708;DHT22;53622;0.000;0.000;2023-09-19T07:16:33;24.40;68.60
66708;DHT22;53622;0.000;0.000;2023-09-19T07:19:05;24.40;68.60
66708;DHT22;53622;0.000;0.000;2023-09-19T07:21:34;24.40;68.60
66708;DHT22;53622;0.000;0.000;2023-09-19T07:24:03;24.30;68.60
66708;DHT22;53622;0.000;0.000;2023-09-19T07:26:32;24.40;68.60
66708;DHT22;53622;0.000;0.000;2023-09-19T07:29:01;24.40;68.60
66708;DHT22;53622;0.000;0.000;2023-09-19T07:31:31;24.40;68.50
66708;DHT22;53622;0.000;0.000;2023-09-19T07:34:00;24.40;68.50
66708;DHT22;53622;0.000;0.000;2023-09-19T07:36:34;24.40;68.50
66708;DHT22;53622;0.000;0.000;2023-09-19T07:39:04;24.40;68.50
66708;DHT22;53622;0.000;0.000;2023-09-19T07:41:35;24.30;68.60
66708;DHT22;53622;0.000;0.000;2023-09-19T07:44:05;24.30;68.50
66708;DHT22;53622;0.000;0.000;2023-09-19T07:46:34;24.30;68.50
66708;DHT22;53622;0.000;0.000;2023-09-19T07:49:02;24.40;68.50
66708;DHT22;53622;0.000;0.000;2023-09-19T07:51:33;24.30;68.50
66708;DHT22;53622;0.000;0.000;2023-09-19T07:54:03;24.30;68.50
66708;DHT22;53622;0.000;0.000;2023-09-19T07:56:32;24.30;68.60
66708;DHT22;53622;0.000;0.000;2023-09-19T07:59:02;24.40;68.60
66708;DHT22;53622;0.000;0.000;2023-09-19T08:01:31;24.30;68.60
66708;DHT22;53622;0.000;0.000;2023-09-19T08:04:00;24.40;68.50
66708;DHT22;53622;0.000;0.000;2023-09-19T08:06:30;24.40;68.50
66708;DHT22;53622;0.000;0.000;2023-09-19T08:09:00;24.40;68.40
66708;DHT22;53622;0.000;0.000;2023-09-19T08:11:34;24.40;68.30
66708;DHT22;53622;0.000;0.000;2023-09-19T08:14:03;24.40;69.20
66708;DHT22;53622;0.000;0.000;2023-09-19T08:16:35;24.40;68.40
66708;DHT22;53622;0.000;0.000;2023-09-19T08:19:04;24.40;68.40
66708;DHT22;53622;0.000;0.000;2023-09-19T08:21:33;24.40;68.40
66708;DHT22;53622;0.000;0.000;2023-09-19T08:24:04;24.40;68.30
66708;DHT22;53622;0.000;0.000;2023-09-19T08:26:33;24.40;68.30
66708;DHT22;53622;0.000;0.000;2023-09-19T08:29:05;24.40;68.30
66708;DHT22;53622;0.000;0.000;2023-09-19T08:31:36;24.40;68.30
66708;DHT22;53622;0.000;0.000;2023-09-19T08:34:05;24.40;68.30
66708;DHT22;53622;0.000;0.000;2023-09-19T08:36:34;24.40;68.20
66708;DHT22;53622;0.000;0.000;2023-09-19T08:39:06;24.40;68.20
66708;DHT22;53622;0.000;0.000;2023-09-19T08:41:36;24.40;68.10
66708;DHT22;53622;0.000;0.000;2023-09-19T08:44:05;24.40;68.00
66708;DHT22;53622;0.000;0.000;2023-09-19T08:46:35;24.40;68.00
66708;DHT22;53622;0.000;0.000;2023-09-19T08:49:11;24.40;68.00
66708;DHT22;53622;0.000;0.000;2023-09-19T08:51:43;24.40;68.00
66708;DHT22;53622;0.000;0.000;2023-09-19T08:54:22;24.40;68.00
66708;DHT22;53622;0.000;0.000;2023-09-19T08:56:54;24.40;68.00
66708;DHT22;53622;0.000;0.000;2023-09-19T08:59:25;24.40;68.00
66708;DHT22;53622;0.000;0.000;2023-09-19T09:01:56;24.40;68.00
66708;DHT22;53622;0.000;0.000;2023-09-19T09:04:26;24.40;68.00
66708;DHT22;53622;0.000;0.000;2023-09-19T09:06:56;24.40;68.00
66708;DHT22;53622;0.000;0.000;2023-09-19T09:09:28;24.40;67.90
66708;DHT22;53622;0.000;0.000;2023-09-19T09:11:58;24.40;67.90
66708;DHT22;53622;0.000;0.000;2023-09-19T09:14:27;24.40;67.80
66708;DHT22;53622;0.000;0.000;2023-09-19T09:16:57;24.40;67.80
66708;DHT22;53622;0.000;0.000;2023-09-19T09:19:27;24.40;67.80
66708;DHT22;53622;0.000;0.000;2023-09-19T09:22:06;24.40;67.80
66708;DHT22;53622;0.000;0.000;2023-09-19T09:24:37;24.50;67.70
66708;DHT22;53622;0.000;0.000;2023-09-19T09:27:07;24.50;67.80
66708;DHT22;53622;0.000;0.000;2023-09-19T09:29:48;24.50;67.70
66708;DHT22;53622;0.000;0.000;2023-09-19T09:32:21;24.50;67.70
66708;DHT22;53622;0.000;0.000;2023-09-19T09:34:52;24.50;67.70
66708;DHT22;53622;0.000;0.000;2023-09-19T09:37:23;24.40;67.80
66708;DHT22;53622;0.000;0.000;2023-09-19T09:39:56;24.40;67.80
66708;DHT22;53622;0.000;0.000;2023-09-19T09:42:30;24.40;67.80
66708;DHT22;53622;0.000;0.000;2023-09-19T09:45:16;24.50;67.80
66708;DHT22;53622;0.000;0.000;2023-09-19T09:47:46;24.50;67.80
66708;DHT22;53622;0.000;0.000;2023-09-19T09:50:26;24.40;67.80
66708;DHT22;53622;0.000;0.000;2023-09-19T09:52:57;24.40;67.90
66708;DHT22;53622;0.000;0.000;2023-09-19T09:56:01;24.40;67.80
66708;DHT22;53622;0.000;0.000;2023-09-19T09:58:34;24.40;67.90
66708;DHT22;53622;0.000;0.000;2023-09-19T10:01:04;24.40;68.00
66708;DHT22;53622;0.000;0.000;2023-09-19T10:03:43;24.40;67.90
66708;DHT22;53622;0.000;0.000;2023-09-19T10:06:16;24.40;67.90
66708;DHT22;53622;0.000;0.000;2023-09-19T10:08:59;24.40;67.90
66708;DHT22;53622;0.000;0.000;2023-09-19T10:11:43;24.40;67.90
66708;DHT22;53622;0.000;0.000;2023-09-19T10:14:14;24.40;67.90
66708;DHT22;53622;0.000;0.000;2023-09-19T10:16:46;24.40;68.00
66708;DHT22;53622;0.000;0.000;2023-09-19T10:19:20;24.40;68.00
66708;DHT22;53622;0.000;0.000;2023-09-19T10:21:54;24.40;67.90
66708;DHT22;53622;0.000;0.000;2023-09-19T10:24:26;24.40;68.00
66708;DHT22;53622;0.000;0.000;2023-09-19T10:26:57;24.40;68.00
66708;DHT22;53622;0.000;0.000;2023-09-19T10:29:28;24.40;68.00
66708;DHT22;53622;0.000;0.000;2023-09-19T10:31:59;24.40;68.10
66708;DHT22;53622;0.000;0.000;2023-09-19T10:34:34;24.40;68.10
66708;DHT22;53622;0.000;0.000;2023-09-19T10:37:04;24.40;68.20
66708;DHT22;53622;0.000;0.000;2023-09-19T10:39:37;24.40;68.20
66708;DHT22;53622;0.000;0.000;2023-09-19T10:42:11;24.40;68.30
66708;DHT22;53622;0.000;0.000;2023-09-19T10:44:45;24.40;68.20
66708;DHT22;53622;0.000;0.000;2023-09-19T10:47:17;24.40;68.20
66708;DHT22;53622;0.000;0.000;2023-09-19T10:49:47;24.40;68.40
66708;DHT22;53622;0.000;0.000;2023-09-19T10:52:20;24.40;68.00
66708;DHT22;53622;0.000;0.000;2023-09-19T10:54:53;24.40;68.00
66708;DHT22;53622;0.000;0.000;2023-09-19T10:57:26;24.40;68.10
66708;DHT22;53622;0.000;0.000;2023-09-19T11:00:03;24.40;68.20
66708;DHT22;53622;0.000;0.000;2023-09-19T11:03:17;24.40;68.20
66708;DHT22;53622;0.000;0.000;2023-09-19T11:06:07;24.40;68.20
66708;DHT22;53622;0.000;0.000;2023-09-19T11:08:55;24.40;68.20
66708;DHT22;53622;0.000;0.000;2023-09-19T11:11:48;24.40;68.20
66708;DHT22;53622;0.000;0.000;2023-09-19T11:14:41;24.40;68.30
66708;DHT22;53622;0.000;0.000;2023-09-19T11:17:42;24.40;68.30
66708;DHT22;53622;0.000;0.000;2023-09-19T11:20:22;24.40;68.30
66708;DHT22;53622;0.000;0.000;2023-09-19T11:23:20;24.40;68.30
66708;DHT22;53622;0.000;0.000;2023-09-19T11:25:52;24.40;68.40
66708;DHT22;53622;0.000;0.000;2023-09-19T11:28:29;24.40;68.40
66708;DHT22;53622;0.000;0.000;2023-09-19T11:34:44;24.40;68.20
66708;DHT22;53622;0.000;0.000;2023-09-19T11:40:30;24.40;68.20
66708;DHT22;53622;0.000;0.000;2023-09-19T11:43:29;24.40;68.30
66708;DHT22;53622;0.000;0.000;2023-09-19T11:46:07;24.40;68.20
66708;DHT22;53622;0.000;0.000;2023-09-19T11:48:39;24.40;68.30
66708;DHT22;53622;0.000;0.000;2023-09-19T11:51:15;24.40;68.20
66708;DHT22;53622;0.000;0.000;2023-09-19T11:53:50;24.40;68.20
66708;DHT22;53622;0.000;0.000;2023-09-19T11:56:21;24.40;68.20
66708;DHT22;53622;0.000;0.000;2023-09-19T11:58:52;24.40;68.20
66708;DHT22;53622;0.000;0.000;2023-09-19T12:01:25;24.40;68.10
66708;DHT22;53622;0.000;0.000;2023-09-19T12:03:58;24.40;68.10
66708;DHT22;53622;0.000;0.000;2023-09-19T12:06:30;24.40;68.20
66708;DHT22;53622;0.000;0.000;2023-09-19T12:09:00;24.40;68.10
66708;DHT22;53622;0.000;0.000;2023-09-19T12:11:31;24.40;68.20
66708;DHT22;53622;0.000;0.000;2023-09-19T12:14:03;24.40;68.20
66708;DHT22;53622;0.000;0.000;2023-09-19T12:16:32;24.40;68.30
66708;DHT22;53622;0.000;0.000;2023-09-19T12:19:18;24.40;68.30
66708;DHT22;53622;0.000;0.000;2023-09-19T12:21:57;24.40;68.20
66708;DHT22;53622;0.000;0.000;2023-09-19T12:24:27;24.40;68.20
66708;DHT22;53622;0.000;0.000;2023-09-19T12:27:03;24.40;68.30
66708;DHT22;53622;0.000;0.000;2023-09-19T12:29:45;24.40;68.20
66708;DHT22;53622;0.000;0.000;2023-09-19T12:32:16;24.40;68.20
66708;DHT22;53622;0.000;0.000;2023-09-19T12:34:51;24.40;68.20
66708;DHT22;53622;0.000;0.000;2023-09-19T12:37:24;24.40;68.30
66708;DHT22;53622;0.000;0.000;2023-09-19T12:40:05;24.40;68.20
66708;DHT22;53622;0.000;0.000;2023-09-19T12:42:44;24.40;68.10
66708;DHT22;53622;0.000;0.000;2023-09-19T12:45:14;24.40;68.10
66708;DHT22;53622;0.000;0.000;2023-09-19T12:48:19;24.40;68.10
66708;DHT22;53622;0.000;0.000;2023-09-19T12:51:01;24.40;68.10
66708;DHT22;53622;0.000;0.000;2023-09-19T12:53:36;24.40;68.20
66708;DHT22;53622;0.000;0.000;2023-09-19T12:56:09;24.40;68.20
66708;DHT22;53622;0.000;0.000;2023-09-19T12:58:52;24.40;68.20
66708;DHT22;53622;0.000;0.000;2023-09-19T13:01:23;24.40;68.10
66708;DHT22;53622;0.000;0.000;2023-09-19T13:04:12;24.40;68.20
66708;DHT22;53622;0.000;0.000;2023-09-19T13:06:43;24.40;68.30
66708;DHT22;53622;0.000;0.000;2023-09-19T13:09:13;24.40;68.30
66708;DHT22;53622;0.000;0.000;2023-09-19T13:11:44;24.40;68.30
66708;DHT22;53622;0.000;0.000;2023-09-19T13:14:19;24.40;68.30
66708;DHT22;53622;0.000;0.000;2023-09-19T13:16:56;24.40;68.30
66708;DHT22;53622;0.000;0.000;2023-09-19T13:19:36;24.40;68.30
66708;DHT22;53622;0.000;0.000;2023-09-19T13:22:05;24.40;68.30
66708;DHT22;53622;0.000;0.000;2023-09-19T13:24:37;24.40;68.30
66708;DHT22;53622;0.000;0.000;2023-09-19T13:27:08;24.40;68.30
66708;DHT22;53622;0.000;0.000;2023-09-19T13:29:37;24.40;68.30
66708;DHT22;53622;0.000;0.000;2023-09-19T13:32:06;24.40;68.20
66708;DHT22;53622;0.000;0.000;2023-09-19T13:34:39;24.40;68.20
66708;DHT22;53622;0.000;0.000;2023-09-19T13:37:08;24.40;68.20
66708;DHT22;53622;0.000;0.000;2023-09-19T13:39:38;24.40;68.10
66708;DHT22;53622;0.000;0.000;2023-09-19T13:42:15;24.40;68.20
66708;DHT22;53622;0.000;0.000;2023-09-19T13:44:46;24.40;68.20
66708;DHT22;53622;0.000;0.000;2023-09-19T13:47:14;24.40;68.20
66708;DHT22;53622;0.000;0.000;2023-09-19T13:49:44;24.40;68.20
66708;DHT22;53622;0.000;0.000;2023-09-19T13:52:15;24.40;68.20
66708;DHT22;53622;0.000;0.000;2023-09-19T13:54:46;24.40;68.10
66708;DHT22;53622;0.000;0.000;2023-09-19T13:57:15;24.40;68.10
66708;DHT22;53622;0.000;0.000;2023-09-19T13:59:44;24.40;68.20
66708;DHT22;53622;0.000;0.000;2023-09-19T14:02:13;24.40;68.10
66708;DHT22;53622;0.000;0.000;2023-09-19T14:04:42;24.40;68.10
66708;DHT22;53622;0.000;0.000;2023-09-19T14:07:11;24.40;68.10
66708;DHT22;53622;0.000;0.000;2023-09-19T14:09:40;24.40;68.10
66708;DHT22;53622;0.000;0.000;2023-09-19T14:12:10;24.40;68.10
66708;DHT22;53622;0.000;0.000;2023-09-19T14:14:39;24.40;68.10
66708;DHT22;53622;0.000;0.000;2023-09-19T14:17:08;24.40;68.20
66708;DHT22;53622;0.000;0.000;2023-09-19T14:19:37;24.40;68.20
66708;DHT22;53622;0.000;0.000;2023-09-19T14:22:13;24.40;68.30
66708;DHT22;53622;0.000;0.000;2023-09-19T14:24:42;24.40;68.30
66708;DHT22;53622;0.000;0.000;2023-09-19T14:27:12;24.40;68.20
66708;DHT22;53622;0.000;0.000;2023-09-19T14:29:42;24.40;68.30
66708;DHT22;53622;0.000;0.000;2023-09-19T14:32:12;24.40;68.30
66708;DHT22;53622;0.000;0.000;2023-09-19T14:34:41;24.40;68.30
66708;DHT22;53622;0.000;0.000;2023-09-19T14:37:10;24.40;68.30
66708;DHT22;53622;0.000;0.000;2023-09-19T14:39:40;24.40;68.30
66708;DHT22;53622;0.000;0.000;2023-09-19T14:42:14;24.40;68.30
66708;DHT22;53622;0.000;0.000;2023-09-19T14:44:45;24.40;68.30
66708;DHT22;53622;0.000;0.000;2023-09-19T14:47:16;24.40;68.30
66708;DHT22;53622;0.000;0.000;2023-09-19T14:49:47;24.40;68.30
66708;DHT22;53622;0.000;0.000;2023-09-19T14:52:16;24.40;68.30
66708;DHT22;53622;0.000;0.000;2023-09-19T14:54:45;24.40;68.30
66708;DHT22;53622;0.000;0.000;2023-09-19T14:57:15;24.40;68.30
66708;DHT22;53622;0.000;0.000;2023-09-19T14:59:44;24.40;68.30
66708;DHT22;53622;0.000;0.000;2023-09-19T15:02:13;24.40;68.30
66708;DHT22;53622;0.000;0.000;2023-09-19T15:04:44;24.40;68.30
66708;DHT22;53622;0.000;0.000;2023-09-19T15:07:14;24.40;68.30
66708;DHT22;53622;0.000;0.000;2023-09-19T15:09:43;24.40;68.30
66708;DHT22;53622;0.000;0.000;2023-09-19T15:12:14;24.40;68.30
66708;DHT22;53622;0.000;0.000;2023-09-19T15:14:44;24.40;68.30
66708;DHT22;53622;0.000;0.000;2023-09-19T15:17:13;24.40;68.30
66708;DHT22;53622;0.000;0.000;2023-09-19T15:19:43;24.40;68.10
66708;DHT22;53622;0.000;0.000;2023-09-19T15:22:12;24.40;68.00
66708;DHT22;53622;0.000;0.000;2023-09-19T15:24:41;24.50;67.80
66708;DHT22;53622;0.000;0.000;2023-09-19T15:27:10;24.50;67.60
66708;DHT22;53622;0.000;0.000;2023-09-19T15:29:41;24.50;67.60
66708;DHT22;53622;0.000;0.000;2023-09-19T15:32:11;24.50;67.50
66708;DHT22;53622;0.000;0.000;2023-09-19T15:34:40;24.50;67.80
66708;DHT22;53622;0.000;0.000;2023-09-19T15:37:09;24.50;67.90
66708;DHT22;53622;0.000;0.000;2023-09-19T15:39:38;24.50;68.00
66708;DHT22;53622;0.000;0.000;2023-09-19T15:42:07;24.50;68.00
66708;DHT22;53622;0.000;0.000;2023-09-19T15:44:36;24.50;68.10
66708;DHT22;53622;0.000;0.000;2023-09-19T15:47:07;24.50;68.30
66708;DHT22;53622;0.000;0.000;2023-09-19T15:49:36;24.50;68.50
66708;DHT22;53622;0.000;0.000;2023-09-19T15:52:05;24.50;68.40
66708;DHT22;53622;0.000;0.000;2023-09-19T15:54:36;24.50;68.40
66708;DHT22;53622;0.000;0.000;2023-09-19T15:57:09;24.50;68.50
66708;DHT22;53622;0.000;0.000;2023-09-19T15:59:40;24.40;68.40
66708;DHT22;53622;0.000;0.000;2023-09-19T16:02:10;24.50;68.50
66708;DHT22;53622;0.000;0.000;2023-09-19T16:04:40;24.50;68.40
66708;DHT22;53622;0.000;0.000;2023-09-19T16:07:11;24.50;69.00
66708;DHT22;53622;0.000;0.000;2023-09-19T16:09:40;24.50;68.20
66708;DHT22;53622;0.000;0.000;2023-09-19T16:12:09;24.50;68.30
66708;DHT22;53622;0.000;0.000;2023-09-19T16:14:38;24.50;68.30
66708;DHT22;53622;0.000;0.000;2023-09-19T16:17:07;24.50;68.40
66708;DHT22;53622;0.000;0.000;2023-09-19T16:19:39;24.50;69.20
66708;DHT22;53622;0.000;0.000;2023-09-19T16:22:10;24.50;68.30